»·PEaware :: N900FT KOAK-KLAS

N900FT :: KOAK-KLAS

FLIGHT INFORMATION

Flight Status: Arrived
Operator: Privately registered:
United States
More flights under this callsign
Pilot: Anonymous 26404 (26404)
Aircraft: SOCATA TBM-900
(TBM9)
More flights by this aircraft type
Origin: KOAK Metro Oakland Intl
United States
Destination: KLAS McCarran Intl
United States
More flights between these airports :: More routes between these airports
Route: CNDEL4 NTELL Q162 ESSAA BTY SUNST4
File this flight plan on PilotEdge
Remarks:
Altitude:
(Current/Filed)
29,000ft
Speed:
(Current/Filed)
315kts
Departed: 20-May-20 05:26 PM
Arrived: 20-May-20 06:51 PM
Distance/Time
Traveled:
352nm/1:25
Distance/Time
To Go:
Arrived

Flight Plot

Page will automatically refresh every two minutes.


Map Options




Map Legend


Flown Route
Filed Route
Departure Airport
Arrival Airport
Navaid (VOR, NDB)
Fix

Horizontal Profiles

Position Reports

Time Latitude Longitude Heading Altitude Ground
Speed
20-May-20 16:57 37.728775 -122.210548 209 6ft 0kts
20-May-20 16:58 37.728775 -122.210548 209 6ft 0kts
20-May-20 16:59 37.728775 -122.210548 209 6ft 0kts
20-May-20 17:00 37.728775 -122.210548 209 6ft 0kts
20-May-20 17:01 37.728775 -122.210548 209 6ft 0kts
20-May-20 17:02 37.728775 -122.210548 209 6ft 0kts
20-May-20 17:03 37.728775 -122.210548 209 6ft 0kts
20-May-20 17:04 37.728775 -122.210548 209 6ft 0kts
20-May-20 17:05 37.728775 -122.210548 209 6ft 0kts
20-May-20 17:06 37.728775 -122.210548 209 6ft 0kts
20-May-20 17:07 37.728775 -122.210548 209 6ft 0kts
20-May-20 17:08 37.728775 -122.210548 209 6ft 0kts
20-May-20 17:09 37.728775 -122.210548 209 6ft 0kts
20-May-20 17:10 37.728775 -122.210548 209 6ft 0kts
20-May-20 17:11 37.728775 -122.210548 209 6ft 0kts
20-May-20 17:12 37.728775 -122.210548 209 6ft 0kts
20-May-20 17:13 37.728775 -122.210548 209 6ft 0kts
20-May-20 17:14 37.728775 -122.210548 209 6ft 0kts
20-May-20 17:15 37.728775 -122.210548 209 6ft 0kts
20-May-20 17:16 37.728775 -122.210548 209 6ft 0kts
20-May-20 17:17 37.728775 -122.210548 209 6ft 0kts
20-May-20 17:18 37.728775 -122.210548 209 6ft 0kts
20-May-20 17:19 37.728157 -122.210978 202 6ft 0kts
20-May-20 17:20 37.727389 -122.209438 112 6ft 15kts
20-May-20 17:21 37.724871 -122.204809 200 6ft 18kts
20-May-20 17:22 37.723154 -122.205680 197 6ft 0kts
20-May-20 17:23 37.723154 -122.205680 197 6ft 0kts
20-May-20 17:24 37.722722 -122.207417 290 6ft 37kts
20-May-20 17:25 37.735087 -122.241459 296 1558ft 120kts
20-May-20 17:26 37.756432 -122.292252 296 2027ft 196kts
20-May-20 17:27 37.785519 -122.345460 272 4023ft 151kts
20-May-20 17:28 37.752919 -122.377653 204 5875ft 174kts
20-May-20 17:29 37.705279 -122.395662 201 7980ft 182kts
20-May-20 17:30 37.654596 -122.414288 199 9908ft 192kts
20-May-20 17:31 37.601198 -122.433854 198 12029ft 198kts
20-May-20 17:32 37.546027 -122.454012 199 13891ft 207kts
20-May-20 17:33 37.488121 -122.468020 152 15703ft 219kts
20-May-20 17:34 37.450393 -122.406160 121 17501ft 222kts
20-May-20 17:35 37.412502 -122.340157 115 19149ft 231kts
20-May-20 17:36 37.396238 -122.261208 96 20765ft 232kts
20-May-20 17:37 37.379924 -122.178998 96 22455ft 244kts
20-May-20 17:38 37.362965 -122.093857 95 24100ft 253kts
20-May-20 17:39 37.345300 -122.005552 96 25534ft 263kts
20-May-20 17:40 37.326933 -121.914138 96 26810ft 272kts
20-May-20 17:41 37.307391 -121.817311 96 28378ft 283kts
20-May-20 17:42 37.287363 -121.718270 97 29191ft 316kts
20-May-20 17:43 37.263894 -121.603214 97 29185ft 350kts
20-May-20 17:44 37.238714 -121.480340 98 29190ft 364kts
20-May-20 17:45 37.212782 -121.354530 98 29183ft 370kts
20-May-20 17:46 37.186925 -121.229798 99 29165ft 371kts
20-May-20 17:47 37.160145 -121.101299 99 29156ft 370kts
20-May-20 17:48 37.133568 -120.974551 99 29131ft 364kts
20-May-20 17:49 37.107186 -120.849529 99 29124ft 360kts
20-May-20 17:50 37.080891 -120.725540 99 29125ft 360kts
20-May-20 17:51 37.054629 -120.602397 99 29125ft 362kts
20-May-20 17:52 37.027864 -120.477591 99 29127ft 365kts
20-May-20 17:53 37.000635 -120.351328 99 29133ft 369kts
20-May-20 17:54 36.973721 -120.227239 100 29130ft 372kts
20-May-20 17:55 36.945764 -120.099054 100 29133ft 375kts
20-May-20 17:56 36.917444 -119.969942 100 29133ft 376kts
20-May-20 17:57 36.896103 -119.847137 81 29113ft 365kts
20-May-20 17:58 36.937717 -119.741358 29 29109ft 318kts
20-May-20 17:59 36.982191 -119.638773 59 29110ft 346kts
20-May-20 18:00 37.018266 -119.526806 59 29108ft 343kts
20-May-20 18:01 37.054332 -119.415538 59 29108ft 340kts
20-May-20 18:02 37.089652 -119.306176 60 29102ft 336kts
20-May-20 18:03 37.124272 -119.198558 60 29127ft 333kts
20-May-20 18:04 37.159730 -119.087895 60 29155ft 332kts
20-May-20 18:05 37.194840 -118.978000 61 29154ft 334kts
20-May-20 18:06 37.230161 -118.866983 62 29142ft 338kts
20-May-20 18:07 37.265614 -118.755014 62 29142ft 342kts
20-May-20 18:08 37.284746 -118.633150 79 29100ft 352kts
20-May-20 18:09 37.296219 -118.508231 79 29040ft 353kts
20-May-20 18:10 37.307562 -118.383365 79 29041ft 352kts
20-May-20 18:11 37.318723 -118.259071 79 29035ft 351kts
20-May-20 18:12 37.329643 -118.135979 79 29036ft 351kts
20-May-20 18:13 37.340415 -118.013091 79 29037ft 351kts
20-May-20 18:14 37.349921 -117.889420 88 29025ft 355kts
20-May-20 18:15 37.339420 -117.764663 93 29038ft 356kts
20-May-20 18:17 37.328221 -117.639405 93 29039ft 356kts
20-May-20 18:18 37.316867 -117.513867 93 29069ft 356kts
20-May-20 18:19 37.305388 -117.388474 93 29122ft 355kts
20-May-20 18:20 37.278102 -117.269182 127 29129ft 360kts
20-May-20 18:21 37.213567 -117.170989 127 29137ft 360kts
20-May-20 18:22 37.151506 -117.069332 128 29138ft 360kts
20-May-20 18:23 37.089535 -116.968025 129 29139ft 361kts
20-May-20 18:24 37.010877 -116.892367 157 29142ft 352kts
20-May-20 18:25 36.923310 -116.832537 155 29111ft 355kts
20-May-20 18:26 36.835648 -116.771861 155 29054ft 356kts
20-May-20 18:27 36.757799 -116.687155 131 27699ft 388kts
20-May-20 18:28 36.686708 -116.585147 132 26349ft 379kts
20-May-20 18:29 36.617077 -116.486189 131 24963ft 369kts
20-May-20 18:30 36.551961 -116.393912 131 24486ft 347kts
20-May-20 18:30 36.497455 -116.316857 131 22909ft 357kts
20-May-20 18:32 36.420764 -116.208748 131 21360ft 350kts
20-May-20 18:33 36.355318 -116.116764 131 19759ft 348kts
20-May-20 18:33 36.301247 -116.040960 131 18411ft 344kts
20-May-20 18:34 36.237155 -115.951328 130 16808ft 339kts
20-May-20 18:36 36.181540 -115.841172 109 16041ft 297kts
20-May-20 18:36 36.156529 -115.763036 109 16044ft 283kts
20-May-20 18:37 36.127071 -115.671546 109 16021ft 282kts
20-May-20 18:38 36.096154 -115.575821 110 15083ft 297kts
20-May-20 18:39 36.064814 -115.479083 110 12500ft 308kts
20-May-20 18:40 36.034044 -115.384489 110 11006ft 271kts
20-May-20 18:41 36.025387 -115.296569 94 10478ft 280kts
20-May-20 18:42 36.025009 -115.201772 72 8858ft 242kts
20-May-20 18:43 36.042754 -115.132282 71 7886ft 168kts
20-May-20 18:44 36.077817 -115.087675 21 4939ft 210kts
20-May-20 18:45 36.133838 -115.060225 3 2854ft 179kts
20-May-20 18:46 36.156558 -115.099235 287 3081ft 147kts
20-May-20 18:47 36.161931 -115.142248 206 3327ft 117kts
20-May-20 18:48 36.131640 -115.140776 194 2912ft 106kts
20-May-20 18:49 36.103021 -115.150934 206 2234ft 101kts
20-May-20 18:50 36.088273 -115.160498 293 2121ft 18kts
20-May-20 18:51 36.088399 -115.160822 294 2122ft 0kts
20-May-20 18:52 36.089108 -115.162706 294 2126ft 15kts
20-May-20 18:53 36.093728 -115.161336 25 2108ft 21kts
20-May-20 18:54 36.094595 -115.162811 286 2111ft 6kts
20-May-20 18:55 36.094618 -115.163019 269 2112ft 0kts
20-May-20 18:56 36.094618 -115.163019 269 2112ft 0kts
20-May-20 18:57 36.094618 -115.163019 269 2112ft 0kts

Navigation Log

Ident Type
Flight plan parsing failed, navigation log unavailable